sensor_id;sensor_type;location;lat;lon;timestamp;pressure;altitude;pressure_sealevel;temperature;humidity
65758;BME280;52495;52.208;5.158;2022-10-22T00:00:17;100786.69;;;14.62;95.05
65758;BME280;52495;52.208;5.158;2022-10-22T00:02:46;100790.13;;;14.63;95.31
65758;BME280;52495;52.208;5.158;2022-10-22T00:05:15;100790.13;;;14.63;95.17
65758;BME280;52495;52.208;5.158;2022-10-22T00:07:42;100784.09;;;14.62;95.33
65758;BME280;52495;52.208;5.158;2022-10-22T00:10:09;100784.91;;;14.64;95.20
65758;BME280;52495;52.208;5.158;2022-10-22T00:12:35;100790.94;;;14.65;95.31
65758;BME280;52495;52.208;5.158;2022-10-22T00:15:02;100789.22;;;14.64;95.16
65758;BME280;52495;52.208;5.158;2022-10-22T00:17:28;100793.53;;;14.65;95.47
65758;BME280;52495;52.208;5.158;2022-10-22T00:19:56;100798.72;;;14.65;95.65
65758;BME280;52495;52.208;5.158;2022-10-22T00:22:29;100790.91;;;14.66;95.50
65758;BME280;52495;52.208;5.158;2022-10-22T00:24:55;100797.81;;;14.66;95.45
65758;BME280;52495;52.208;5.158;2022-10-22T00:27:22;100807.38;;;14.65;95.59
65758;BME280;52495;52.208;5.158;2022-10-22T00:29:48;100790.94;;;14.65;95.59
65758;BME280;52495;52.208;5.158;2022-10-22T00:32:15;100810.81;;;14.66;95.61
65758;BME280;52495;52.208;5.158;2022-10-22T00:34:41;100809.09;;;14.66;95.34
65758;BME280;52495;52.208;5.158;2022-10-22T00:37:09;100805.69;;;14.64;95.67
65758;BME280;52495;52.208;5.158;2022-10-22T00:39:35;100794.41;;;14.65;95.76
65758;BME280;52495;52.208;5.158;2022-10-22T00:42:02;100795.28;;;14.64;95.38
65758;BME280;52495;52.208;5.158;2022-10-22T00:47:14;100800.59;;;14.61;95.56
65758;BME280;52495;52.208;5.158;2022-10-22T00:49:41;100803.19;;;14.61;95.97
65758;BME280;52495;52.208;5.158;2022-10-22T00:52:09;100797.19;;;14.59;96.06
65758;BME280;52495;52.208;5.158;2022-10-22T00:54:36;100800.69;;;14.58;96.00
65758;BME280;52495;52.208;5.158;2022-10-22T00:57:05;100806.84;;;14.55;95.75
65758;BME280;52495;52.208;5.158;2022-10-22T00:59:32;100803.47;;;14.53;96.22
65758;BME280;52495;52.208;5.158;2022-10-22T01:01:58;100809.50;;;14.54;96.22
65758;BME280;52495;52.208;5.158;2022-10-22T01:04:25;100811.25;;;14.53;96.08
65758;BME280;52495;52.208;5.158;2022-10-22T01:06:51;100803.47;;;14.53;96.30
65758;BME280;52495;52.208;5.158;2022-10-22T01:09:21;100814.81;;;14.51;96.07
65758;BME280;52495;52.208;5.158;2022-10-22T01:11:53;100815.72;;;14.50;96.27
65758;BME280;52495;52.208;5.158;2022-10-22T01:14:28;100813.16;;;14.48;96.30
65758;BME280;52495;52.208;5.158;2022-10-22T01:16:58;100818.41;;;14.47;96.45
65758;BME280;52495;52.208;5.158;2022-10-22T01:19:38;100818.41;;;14.47;96.53
65758;BME280;52495;52.208;5.158;2022-10-22T01:22:10;100824.44;;;14.47;96.56
65758;BME280;52495;52.208;5.158;2022-10-22T01:24:43;100821.00;;;14.47;96.51
65758;BME280;52495;52.208;5.158;2022-10-22T01:27:19;100814.13;;;14.46;96.71
65758;BME280;52495;52.208;5.158;2022-10-22T01:29:48;100814.13;;;14.46;96.55
65758;BME280;52495;52.208;5.158;2022-10-22T01:32:16;100820.16;;;14.46;96.58
65758;BME280;52495;52.208;5.158;2022-10-22T01:34:45;100819.31;;;14.46;96.49
65758;BME280;52495;52.208;5.158;2022-10-22T01:37:13;100813.25;;;14.45;96.71
65758;BME280;52495;52.208;5.158;2022-10-22T01:39:41;100814.16;;;14.44;96.51
65758;BME280;52495;52.208;5.158;2022-10-22T01:42:10;100809.81;;;14.45;96.10
65758;BME280;52495;52.208;5.158;2022-10-22T01:44:37;100803.81;;;14.42;96.45
65758;BME280;52495;52.208;5.158;2022-10-22T01:47:13;100808.19;;;14.42;96.53
65758;BME280;52495;52.208;5.158;2022-10-22T01:49:47;100803.00;;;14.42;96.45
65758;BME280;52495;52.208;5.158;2022-10-22T01:52:22;100806.47;;;14.41;96.17
65758;BME280;52495;52.208;5.158;2022-10-22T01:54:55;100800.44;;;14.40;96.49
65758;BME280;52495;52.208;5.158;2022-10-22T01:57:27;100797.81;;;14.40;96.44
65758;BME280;52495;52.208;5.158;2022-10-22T01:59:57;100803.00;;;14.42;96.47
65758;BME280;52495;52.208;5.158;2022-10-22T02:02:31;100795.19;;;14.42;96.53
65758;BME280;52495;52.208;5.158;2022-10-22T02:04:59;100792.63;;;14.40;96.66
65758;BME280;52495;52.208;5.158;2022-10-22T02:07:34;100792.63;;;14.40;96.18
65758;BME280;52495;52.208;5.158;2022-10-22T02:10:02;100793.53;;;14.39;96.10
65758;BME280;52495;52.208;5.158;2022-10-22T02:12:29;100789.22;;;14.38;96.25
65758;BME280;52495;52.208;5.158;2022-10-22T02:14:56;100788.44;;;14.36;96.35
65758;BME280;52495;52.208;5.158;2022-10-22T02:17:24;100794.53;;;14.35;96.27
65758;BME280;52495;52.208;5.158;2022-10-22T02:19:55;100790.94;;;14.39;95.79
65758;BME280;52495;52.208;5.158;2022-10-22T02:22:22;100789.22;;;14.38;95.92
65758;BME280;52495;52.208;5.158;2022-10-22T02:24:49;100786.72;;;14.35;95.97
65758;BME280;52495;52.208;5.158;2022-10-22T02:27:17;100796.28;;;14.35;96.34
65758;BME280;52495;52.208;5.158;2022-10-22T02:29:47;100785.06;;;14.34;96.01
65758;BME280;52495;52.208;5.158;2022-10-22T02:32:17;100790.28;;;14.33;96.03
65758;BME280;52495;52.208;5.158;2022-10-22T02:34:46;100779.88;;;14.34;95.84
65758;BME280;52495;52.208;5.158;2022-10-22T02:37:15;100791.19;;;14.32;95.84
65758;BME280;52495;52.208;5.158;2022-10-22T02:39:42;100792.19;;;14.27;95.83
65758;BME280;52495;52.208;5.158;2022-10-22T02:42:09;100795.59;;;14.30;95.98
65758;BME280;52495;52.208;5.158;2022-10-22T02:44:37;100788.69;;;14.29;95.84
65758;BME280;52495;52.208;5.158;2022-10-22T02:47:03;100799.09;;;14.29;96.11
65758;BME280;52495;52.208;5.158;2022-10-22T02:49:30;100793.88;;;14.29;95.98
65758;BME280;52495;52.208;5.158;2022-10-22T02:51:56;100800.84;;;14.28;95.89
65758;BME280;52495;52.208;5.158;2022-10-22T02:54:25;100794.75;;;14.29;95.72
65758;BME280;52495;52.208;5.158;2022-10-22T02:56:51;100794.84;;;14.26;96.04
65758;BME280;52495;52.208;5.158;2022-10-22T02:59:18;100800.03;;;14.26;95.85
65758;BME280;52495;52.208;5.158;2022-10-22T03:01:44;100807.78;;;14.27;95.73
65758;BME280;52495;52.208;5.158;2022-10-22T03:04:11;100799.22;;;14.25;95.88
65758;BME280;52495;52.208;5.158;2022-10-22T03:06:38;100806.06;;;14.26;95.94
65758;BME280;52495;52.208;5.158;2022-10-22T03:09:09;100806.03;;;14.28;95.48
65758;BME280;52495;52.208;5.158;2022-10-22T03:11:39;100808.72;;;14.25;95.56
65758;BME280;52495;52.208;5.158;2022-10-22T03:14:06;100813.09;;;14.24;95.47
65758;BME280;52495;52.208;5.158;2022-10-22T03:16:32;100811.41;;;14.23;95.70
65758;BME280;52495;52.208;5.158;2022-10-22T03:18:59;100809.69;;;14.22;95.46
65758;BME280;52495;52.208;5.158;2022-10-22T03:21:27;100810.50;;;14.24;95.33
65758;BME280;52495;52.208;5.158;2022-10-22T03:23:55;100815.78;;;14.21;95.76
65758;BME280;52495;52.208;5.158;2022-10-22T03:26:22;100807.13;;;14.21;95.36
65758;BME280;52495;52.208;5.158;2022-10-22T03:28:50;100808.94;;;14.19;95.22
65758;BME280;52495;52.208;5.158;2022-10-22T03:31:16;100809.78;;;14.19;95.70
65758;BME280;52495;52.208;5.158;2022-10-22T03:33:43;100809.81;;;14.18;95.54
65758;BME280;52495;52.208;5.158;2022-10-22T03:36:09;100815.00;;;14.18;95.28
65758;BME280;52495;52.208;5.158;2022-10-22T03:38:36;100827.16;;;14.17;95.31
65758;BME280;52495;52.208;5.158;2022-10-22T03:41:04;100823.75;;;14.15;95.38
65758;BME280;52495;52.208;5.158;2022-10-22T03:43:31;100817.78;;;14.13;95.51
65758;BME280;52495;52.208;5.158;2022-10-22T03:46:00;100825.63;;;14.11;95.42
65758;BME280;52495;52.208;5.158;2022-10-22T03:48:26;100825.66;;;14.10;95.32
65758;BME280;52495;52.208;5.158;2022-10-22T03:50:53;100830.97;;;14.07;95.60
65758;BME280;52495;52.208;5.158;2022-10-22T03:53:19;100828.47;;;14.04;95.26
65758;BME280;52495;52.208;5.158;2022-10-22T03:55:46;100827.59;;;14.03;95.61
65758;BME280;52495;52.208;5.158;2022-10-22T03:58:12;100827.59;;;14.03;95.43
65758;BME280;52495;52.208;5.158;2022-10-22T04:00:39;100831.06;;;14.04;95.65
65758;BME280;52495;52.208;5.158;2022-10-22T04:03:07;100838.03;;;14.02;95.66
65758;BME280;52495;52.208;5.158;2022-10-22T04:05:33;100832.03;;;14.00;95.61
65758;BME280;52495;52.208;5.158;2022-10-22T04:08:00;100834.63;;;14.00;95.58
65758;BME280;52495;52.208;5.158;2022-10-22T04:10:26;100835.59;;;13.97;95.56
65758;BME280;52495;52.208;5.158;2022-10-22T04:12:53;100837.34;;;13.96;95.67
65758;BME280;52495;52.208;5.158;2022-10-22T04:15:19;100839.09;;;13.96;95.84
65758;BME280;52495;52.208;5.158;2022-10-22T04:17:46;100839.13;;;13.94;95.38
65758;BME280;52495;52.208;5.158;2022-10-22T04:20:14;100842.72;;;13.90;95.37
65758;BME280;52495;52.208;5.158;2022-10-22T04:22:40;100847.94;;;13.90;95.46
65758;BME280;52495;52.208;5.158;2022-10-22T04:25:07;100847.94;;;13.89;95.81
65758;BME280;52495;52.208;5.158;2022-10-22T04:27:34;100842.75;;;13.89;96.02
65758;BME280;52495;52.208;5.158;2022-10-22T04:30:00;100852.34;;;13.87;96.00
65758;BME280;52495;52.208;5.158;2022-10-22T04:32:27;100851.44;;;13.88;96.58
65758;BME280;52495;52.208;5.158;2022-10-22T04:34:53;100850.59;;;13.87;96.65
65758;BME280;52495;52.208;5.158;2022-10-22T04:37:22;100855.78;;;13.87;96.59
65758;BME280;52495;52.208;5.158;2022-10-22T04:39:48;100855.75;;;13.89;96.61
65758;BME280;52495;52.208;5.158;2022-10-22T04:42:15;100853.16;;;13.89;96.50
65758;BME280;52495;52.208;5.158;2022-10-22T04:44:41;100852.34;;;13.87;96.71
65758;BME280;52495;52.208;5.158;2022-10-22T04:47:08;100856.63;;;13.88;97.02
65758;BME280;52495;52.208;5.158;2022-10-22T04:49:34;100864.47;;;13.86;97.17
65758;BME280;52495;52.208;5.158;2022-10-22T04:52:01;100864.47;;;13.86;96.94
65758;BME280;52495;52.208;5.158;2022-10-22T04:54:29;100860.13;;;13.87;97.08
65758;BME280;52495;52.208;5.158;2022-10-22T04:56:55;100863.63;;;13.86;97.05
65758;BME280;52495;52.208;5.158;2022-10-22T04:59:22;100863.63;;;13.86;97.01
65758;BME280;52495;52.208;5.158;2022-10-22T05:01:48;100869.66;;;13.86;97.38
65758;BME280;52495;52.208;5.158;2022-10-22T05:04:15;100866.19;;;13.87;97.70
65758;BME280;52495;52.208;5.158;2022-10-22T05:06:43;100873.09;;;13.87;97.35
65758;BME280;52495;52.208;5.158;2022-10-22T05:09:11;100868.81;;;13.86;97.58
65758;BME280;52495;52.208;5.158;2022-10-22T05:11:40;100867.09;;;13.85;97.44
65758;BME280;52495;52.208;5.158;2022-10-22T05:14:10;100864.47;;;13.86;97.56
65758;BME280;52495;52.208;5.158;2022-10-22T05:16:36;100865.38;;;13.85;97.01
65758;BME280;52495;52.208;5.158;2022-10-22T05:19:04;100865.41;;;13.84;97.11
65758;BME280;52495;52.208;5.158;2022-10-22T05:21:31;100862.81;;;13.84;97.13
65758;BME280;52495;52.208;5.158;2022-10-22T05:23:57;100867.22;;;13.81;97.02
65758;BME280;52495;52.208;5.158;2022-10-22T05:26:25;100867.25;;;13.80;97.26
65758;BME280;52495;52.208;5.158;2022-10-22T05:28:53;100869.91;;;13.78;97.47
65758;BME280;52495;52.208;5.158;2022-10-22T05:31:19;100872.59;;;13.75;97.44
65758;BME280;52495;52.208;5.158;2022-10-22T05:33:46;100876.06;;;13.74;97.29
65758;BME280;52495;52.208;5.158;2022-10-22T05:36:13;100873.56;;;13.71;97.44
65758;BME280;52495;52.208;5.158;2022-10-22T05:38:40;100878.00;;;13.68;97.72
65758;BME280;52495;52.208;5.158;2022-10-22T05:41:07;100873.66;;;13.68;97.88
65758;BME280;52495;52.208;5.158;2022-10-22T05:43:35;100871.94;;;13.69;97.85
65758;BME280;52495;52.208;5.158;2022-10-22T05:46:04;100873.75;;;13.65;97.85
65758;BME280;52495;52.208;5.158;2022-10-22T05:48:31;100873.72;;;13.66;97.97
65758;BME280;52495;52.208;5.158;2022-10-22T05:51:00;100877.25;;;13.64;97.95
65758;BME280;52495;52.208;5.158;2022-10-22T05:53:29;100887.56;;;13.65;97.92
65758;BME280;52495;52.208;5.158;2022-10-22T05:55:58;100893.66;;;13.64;97.99
65758;BME280;52495;52.208;5.158;2022-10-22T05:58:28;100888.53;;;13.63;98.39
65758;BME280;52495;52.208;5.158;2022-10-22T06:00:59;100904.09;;;13.63;98.58
65758;BME280;52495;52.208;5.158;2022-10-22T06:03:27;100900.59;;;13.64;98.25
65758;BME280;52495;52.208;5.158;2022-10-22T06:05:54;100904.94;;;13.63;98.70
65758;BME280;52495;52.208;5.158;2022-10-22T06:08:20;100898.91;;;13.63;98.56
65758;BME280;52495;52.208;5.158;2022-10-22T06:10:47;100912.78;;;13.62;98.47
65758;BME280;52495;52.208;5.158;2022-10-22T06:13:13;100917.91;;;13.63;98.57
65758;BME280;52495;52.208;5.158;2022-10-22T06:15:40;100914.47;;;13.63;98.65
65758;BME280;52495;52.208;5.158;2022-10-22T06:18:06;100914.47;;;13.63;98.24
65758;BME280;52495;52.208;5.158;2022-10-22T06:20:34;100923.16;;;13.62;98.30
65758;BME280;52495;52.208;5.158;2022-10-22T06:23:00;100920.47;;;13.65;98.32
65758;BME280;52495;52.208;5.158;2022-10-22T06:25:27;100913.38;;;13.70;97.62
65758;BME280;52495;52.208;5.158;2022-10-22T06:27:53;100920.34;;;13.68;98.17
65758;BME280;52495;52.208;5.158;2022-10-22T06:30:20;100921.31;;;13.65;98.25
65758;BME280;52495;52.208;5.158;2022-10-22T06:32:46;100924.66;;;13.69;98.27
65758;BME280;52495;52.208;5.158;2022-10-22T06:35:13;100935.03;;;13.69;98.70
65758;BME280;52495;52.208;5.158;2022-10-22T06:37:41;100934.94;;;13.72;98.66
65758;BME280;52495;52.208;5.158;2022-10-22T06:40:07;100937.50;;;13.74;99.25
65758;BME280;52495;52.208;5.158;2022-10-22T06:42:35;100946.94;;;13.76;98.90
65758;BME280;52495;52.208;5.158;2022-10-22T06:45:01;100957.28;;;13.78;99.02
65758;BME280;52495;52.208;5.158;2022-10-22T06:47:28;100959.78;;;13.81;99.08
65758;BME280;52495;52.208;5.158;2022-10-22T06:49:55;100968.31;;;13.85;99.05
65758;BME280;52495;52.208;5.158;2022-10-22T06:52:22;100956.97;;;13.89;98.71
65758;BME280;52495;52.208;5.158;2022-10-22T06:54:50;100964.72;;;13.90;98.85
65758;BME280;52495;52.208;5.158;2022-10-22T06:57:16;100972.41;;;13.93;98.99
65758;BME280;52495;52.208;5.158;2022-10-22T06:59:43;100969.78;;;13.95;98.90
65758;BME280;52495;52.208;5.158;2022-10-22T07:02:09;100974.88;;;13.98;98.40
65758;BME280;52495;52.208;5.158;2022-10-22T07:04:36;100978.28;;;14.00;98.58
65758;BME280;52495;52.208;5.158;2022-10-22T07:07:02;100980.75;;;14.03;98.42
65758;BME280;52495;52.208;5.158;2022-10-22T07:09:29;100985.06;;;14.04;98.24
65758;BME280;52495;52.208;5.158;2022-10-22T07:12:02;100983.25;;;14.08;98.49
65758;BME280;52495;52.208;5.158;2022-10-22T07:14:28;100986.59;;;14.11;98.17
65758;BME280;52495;52.208;5.158;2022-10-22T07:16:55;100979.63;;;14.12;98.06
65758;BME280;52495;52.208;5.158;2022-10-22T07:19:21;100978.66;;;14.16;98.50
65758;BME280;52495;52.208;5.158;2022-10-22T07:21:48;100986.38;;;14.19;98.45
65758;BME280;52495;52.208;5.158;2022-10-22T07:24:14;100985.41;;;14.22;98.17
65758;BME280;52495;52.208;5.158;2022-10-22T07:26:41;100988.81;;;14.24;98.14
65758;BME280;52495;52.208;5.158;2022-10-22T07:29:08;100993.13;;;14.25;97.63
65758;BME280;52495;52.208;5.158;2022-10-22T07:31:35;100999.94;;;14.27;97.74
65758;BME280;52495;52.208;5.158;2022-10-22T07:34:05;101005.94;;;14.31;97.80
65758;BME280;52495;52.208;5.158;2022-10-22T07:36:32;101006.69;;;14.35;97.93
65758;BME280;52495;52.208;5.158;2022-10-22T07:38:58;101007.50;;;14.35;97.68
65758;BME280;52495;52.208;5.158;2022-10-22T07:41:25;101010.88;;;14.39;97.90
65758;BME280;52495;52.208;5.158;2022-10-22T07:43:52;101018.53;;;14.44;97.58
65758;BME280;52495;52.208;5.158;2022-10-22T07:46:20;101018.47;;;14.45;97.20
65758;BME280;52495;52.208;5.158;2022-10-22T07:48:46;101012.38;;;14.46;96.71
65758;BME280;52495;52.208;5.158;2022-10-22T07:51:13;101019.13;;;14.52;96.71
65758;BME280;52495;52.208;5.158;2022-10-22T07:53:40;101019.09;;;14.53;96.26
65758;BME280;52495;52.208;5.158;2022-10-22T07:56:06;101029.44;;;14.55;96.02
65758;BME280;52495;52.208;5.158;2022-10-22T07:58:33;101032.75;;;14.60;96.05
65758;BME280;52495;52.208;5.158;2022-10-22T08:00:59;101039.66;;;14.61;95.88
65758;BME280;52495;52.208;5.158;2022-10-22T08:03:28;101046.41;;;14.68;95.70
65758;BME280;52495;52.208;5.158;2022-10-22T08:05:54;101039.34;;;14.72;95.33
65758;BME280;52495;52.208;5.158;2022-10-22T08:08:21;101045.38;;;14.72;95.16
65758;BME280;52495;52.208;5.158;2022-10-22T08:10:49;101041.94;;;14.72;95.19
65758;BME280;52495;52.208;5.158;2022-10-22T08:13:17;101051.38;;;14.75;95.32
65758;BME280;52495;52.208;5.158;2022-10-22T08:15:43;101054.00;;;14.75;95.21
65758;BME280;52495;52.208;5.158;2022-10-22T08:18:11;101059.16;;;14.76;95.36
65758;BME280;52495;52.208;5.158;2022-10-22T08:20:39;101062.41;;;14.83;95.44
65758;BME280;52495;52.208;5.158;2022-10-22T08:23:06;101074.44;;;14.85;95.47
65758;BME280;52495;52.208;5.158;2022-10-22T08:25:32;101066.50;;;14.90;95.45
65758;BME280;52495;52.208;5.158;2022-10-22T08:27:59;101065.56;;;14.93;95.25
65758;BME280;52495;52.208;5.158;2022-10-22T08:30:25;101078.41;;;14.97;95.20
65758;BME280;52495;52.208;5.158;2022-10-22T08:32:53;101066.97;;;15.03;94.81
65758;BME280;52495;52.208;5.158;2022-10-22T08:35:20;101075.38;;;15.11;94.97
65758;BME280;52495;52.208;5.158;2022-10-22T08:37:48;101077.06;;;15.12;94.50
65758;BME280;52495;52.208;5.158;2022-10-22T08:40:19;101082.16;;;15.15;94.31
65758;BME280;52495;52.208;5.158;2022-10-22T08:42:55;101082.00;;;15.20;94.26
65758;BME280;52495;52.208;5.158;2022-10-22T08:45:29;101082.78;;;15.24;93.90
65758;BME280;52495;52.208;5.158;2022-10-22T08:48:07;101088.66;;;15.29;93.65
65758;BME280;52495;52.208;5.158;2022-10-22T08:50:37;101077.31;;;15.31;92.90
65758;BME280;52495;52.208;5.158;2022-10-22T08:53:09;101091.22;;;15.30;92.83
65758;BME280;52495;52.208;5.158;2022-10-22T08:55:37;101096.38;;;15.32;92.56
65758;BME280;52495;52.208;5.158;2022-10-22T08:58:05;101093.75;;;15.32;92.72
65758;BME280;52495;52.208;5.158;2022-10-22T09:00:41;101102.34;;;15.36;92.75
65758;BME280;52495;52.208;5.158;2022-10-22T09:03:16;101103.13;;;15.38;92.17
65758;BME280;52495;52.208;5.158;2022-10-22T09:05:55;101099.59;;;15.39;92.54
65758;BME280;52495;52.208;5.158;2022-10-22T09:08:25;101110.81;;;15.41;92.51
65758;BME280;52495;52.208;5.158;2022-10-22T09:10:56;101118.59;;;15.42;92.38
65758;BME280;52495;52.208;5.158;2022-10-22T09:13:23;101118.50;;;15.45;92.26
65758;BME280;52495;52.208;5.158;2022-10-22T09:15:51;101117.53;;;15.48;92.40
65758;BME280;52495;52.208;5.158;2022-10-22T09:18:25;101123.44;;;15.53;92.42
65758;BME280;52495;52.208;5.158;2022-10-22T09:20:57;101120.72;;;15.56;92.10
65758;BME280;52495;52.208;5.158;2022-10-22T09:23:28;101124.91;;;15.60;91.92
65758;BME280;52495;52.208;5.158;2022-10-22T09:25:57;101116.16;;;15.63;91.43
65758;BME280;52495;52.208;5.158;2022-10-22T09:28:25;101127.22;;;15.70;91.45
65758;BME280;52495;52.208;5.158;2022-10-22T09:30:51;101131.47;;;15.72;91.20
65758;BME280;52495;52.208;5.158;2022-10-22T09:33:25;101139.75;;;15.85;91.12
65758;BME280;52495;52.208;5.158;2022-10-22T09:35:52;101133.56;;;15.88;90.46
65758;BME280;52495;52.208;5.158;2022-10-22T09:38:20;101137.69;;;15.95;90.39
65758;BME280;52495;52.208;5.158;2022-10-22T09:40:51;101138.22;;;16.05;90.31
65758;BME280;52495;52.208;5.158;2022-10-22T09:43:19;101145.78;;;16.11;89.72
65758;BME280;52495;52.208;5.158;2022-10-22T09:45:46;101144.72;;;16.17;89.10
65758;BME280;52495;52.208;5.158;2022-10-22T09:48:16;101145.41;;;16.22;88.51
65758;BME280;52495;52.208;5.158;2022-10-22T09:50:45;101142.72;;;16.23;87.96
65758;BME280;52495;52.208;5.158;2022-10-22T09:53:13;101161.84;;;16.24;87.41
65758;BME280;52495;52.208;5.158;2022-10-22T09:55:43;101168.63;;;16.28;87.08
65758;BME280;52495;52.208;5.158;2022-10-22T09:58:11;101164.25;;;16.29;86.90
65758;BME280;52495;52.208;5.158;2022-10-22T10:00:38;101171.91;;;16.33;86.48
65758;BME280;52495;52.208;5.158;2022-10-22T10:03:05;101173.47;;;16.39;86.99
65758;BME280;52495;52.208;5.158;2022-10-22T10:05:32;101171.63;;;16.41;86.34
65758;BME280;52495;52.208;5.158;2022-10-22T10:08:00;101175.09;;;16.42;86.15
65758;BME280;52495;52.208;5.158;2022-10-22T10:10:34;101177.53;;;16.46;86.34
65758;BME280;52495;52.208;5.158;2022-10-22T10:13:13;101177.34;;;16.51;85.51
65758;BME280;52495;52.208;5.158;2022-10-22T10:15:45;101187.75;;;16.52;86.11
65758;BME280;52495;52.208;5.158;2022-10-22T10:18:17;101185.31;;;16.48;85.01
65758;BME280;52495;52.208;5.158;2022-10-22T10:20:49;101182.63;;;16.49;85.60
65758;BME280;52495;52.208;5.158;2022-10-22T10:23:20;101194.19;;;16.42;85.10
65758;BME280;52495;52.208;5.158;2022-10-22T10:25:53;101199.28;;;16.45;84.66
65758;BME280;52495;52.208;5.158;2022-10-22T10:28:30;101196.13;;;16.37;84.51
65758;BME280;52495;52.208;5.158;2022-10-22T10:31:02;101201.16;;;16.42;85.08
65758;BME280;52495;52.208;5.158;2022-10-22T10:33:32;101213.50;;;16.36;85.54
65758;BME280;52495;52.208;5.158;2022-10-22T10:36:05;101211.38;;;16.48;85.42
65758;BME280;52495;52.208;5.158;2022-10-22T10:38:41;101207.06;;;16.47;84.21
65758;BME280;52495;52.208;5.158;2022-10-22T10:41:12;101208.59;;;16.52;83.98
65758;BME280;52495;52.208;5.158;2022-10-22T10:43:44;101216.34;;;16.54;83.72
65758;BME280;52495;52.208;5.158;2022-10-22T10:46:15;101211.66;;;16.64;83.63
65758;BME280;52495;52.208;5.158;2022-10-22T10:48:47;101220.28;;;16.66;83.69
65758;BME280;52495;52.208;5.158;2022-10-22T10:51:28;101221.63;;;16.76;83.28
65758;BME280;52495;52.208;5.158;2022-10-22T10:54:03;101221.28;;;16.86;83.38
65758;BME280;52495;52.208;5.158;2022-10-22T10:56:35;101227.44;;;16.83;82.41
65758;BME280;52495;52.208;5.158;2022-10-22T10:59:11;101238.66;;;16.87;83.21
65758;BME280;52495;52.208;5.158;2022-10-22T11:01:41;101228.22;;;16.87;82.48
65758;BME280;52495;52.208;5.158;2022-10-22T11:04:12;101229.72;;;16.92;82.42
65758;BME280;52495;52.208;5.158;2022-10-22T11:06:46;101228.88;;;16.92;81.79
65758;BME280;52495;52.208;5.158;2022-10-22T11:09:17;101240.97;;;16.94;82.16
65758;BME280;52495;52.208;5.158;2022-10-22T11:11:47;101222.75;;;16.93;81.34
65758;BME280;52495;52.208;5.158;2022-10-22T11:14:18;101227.97;;;16.93;81.69
65758;BME280;52495;52.208;5.158;2022-10-22T11:16:48;101235.75;;;16.94;81.62
65758;BME280;52495;52.208;5.158;2022-10-22T11:19:17;101233.19;;;16.93;80.59
65758;BME280;52495;52.208;5.158;2022-10-22T11:21:48;101236.50;;;16.98;80.34
65758;BME280;52495;52.208;5.158;2022-10-22T11:24:25;101239.78;;;17.03;79.64
65758;BME280;52495;52.208;5.158;2022-10-22T11:26:53;101240.59;;;17.05;78.12
65758;BME280;52495;52.208;5.158;2022-10-22T11:29:23;101233.56;;;17.07;78.45
65758;BME280;52495;52.208;5.158;2022-10-22T11:31:51;101238.41;;;17.17;77.04
65758;BME280;52495;52.208;5.158;2022-10-22T11:34:21;101243.25;;;17.26;77.19
65758;BME280;52495;52.208;5.158;2022-10-22T11:36:50;101237.63;;;17.37;77.05
65758;BME280;52495;52.208;5.158;2022-10-22T11:39:32;101239.13;;;17.42;76.22
65758;BME280;52495;52.208;5.158;2022-10-22T11:42:01;101248.63;;;17.45;75.39
65758;BME280;52495;52.208;5.158;2022-10-22T11:44:28;101244.53;;;17.38;74.84
65758;BME280;52495;52.208;5.158;2022-10-22T11:46:57;101247.13;;;17.39;75.20
65758;BME280;52495;52.208;5.158;2022-10-22T11:49:27;101243.63;;;17.39;75.51
65758;BME280;52495;52.208;5.158;2022-10-22T11:52:21;101253.06;;;17.43;74.72
65758;BME280;52495;52.208;5.158;2022-10-22T11:54:49;101237.66;;;17.59;73.81
65758;BME280;52495;52.208;5.158;2022-10-22T11:57:20;101256.25;;;17.72;73.08
65758;BME280;52495;52.208;5.158;2022-10-22T11:59:51;101250.97;;;17.73;71.77
65758;BME280;52495;52.208;5.158;2022-10-22T12:08:23;101254.00;;;17.85;71.62
65758;BME280;52495;52.208;5.158;2022-10-22T12:10:55;101259.34;;;17.82;70.32
65758;BME280;52495;52.208;5.158;2022-10-22T12:13:24;101257.84;;;17.76;70.07
65758;BME280;52495;52.208;5.158;2022-10-22T12:15:53;101266.22;;;17.62;70.37
65758;BME280;52495;52.208;5.158;2022-10-22T12:18:23;101261.78;;;17.64;70.75
65758;BME280;52495;52.208;5.158;2022-10-22T12:20:51;101262.81;;;17.60;70.56
65758;BME280;52495;52.208;5.158;2022-10-22T12:23:28;101261.97;;;17.59;71.10
65758;BME280;52495;52.208;5.158;2022-10-22T12:25:55;101268.97;;;17.59;71.90
65758;BME280;52495;52.208;5.158;2022-10-22T12:28:22;101268.03;;;17.60;71.99
65758;BME280;52495;52.208;5.158;2022-10-22T12:30:48;101263.56;;;17.64;71.46
65758;BME280;52495;52.208;5.158;2022-10-22T12:33:18;101272.91;;;17.69;70.94
65758;BME280;52495;52.208;5.158;2022-10-22T12:35:45;101272.50;;;17.79;70.56
65758;BME280;52495;52.208;5.158;2022-10-22T12:38:14;101271.44;;;17.84;70.15
65758;BME280;52495;52.208;5.158;2022-10-22T12:40:41;101272.03;;;17.91;70.46
65758;BME280;52495;52.208;5.158;2022-10-22T12:43:10;101270.13;;;17.95;69.42
65758;BME280;52495;52.208;5.158;2022-10-22T12:45:38;101277.81;;;17.99;68.15
65758;BME280;52495;52.208;5.158;2022-10-22T12:48:06;101272.59;;;17.99;68.18
65758;BME280;52495;52.208;5.158;2022-10-22T12:50:35;101268.50;;;17.92;66.68
65758;BME280;52495;52.208;5.158;2022-10-22T12:53:03;101275.09;;;17.80;65.00
65758;BME280;52495;52.208;5.158;2022-10-22T12:55:30;101270.56;;;17.84;65.76
65758;BME280;52495;52.208;5.158;2022-10-22T12:57:58;101275.00;;;17.82;65.61
65758;BME280;52495;52.208;5.158;2022-10-22T13:00:26;101273.31;;;17.81;66.42
65758;BME280;52495;52.208;5.158;2022-10-22T13:02:55;101260.91;;;17.86;65.69
65758;BME280;52495;52.208;5.158;2022-10-22T13:05:23;101260.59;;;17.94;66.58